This is the latest recevied weather packets stored in our database for station/object VK5TRM-14. If no packets are shown the sender has not sent any weather packets the latest 10 day(s).
| Time | Temp. | Humidity | Pressure | Rain* | Wind** | Luminosity | Snow |
|---|---|---|---|---|---|---|---|
| 1777718705 | 17.22° C | 92% | 1011.4 hPa | 8.64 mm | - | - | - |
| 1777717805 | 17.22° C | 92% | 1011.2 hPa | 8.13 mm | - | - | - |
| 1777716905 | 17.22° C | 92% | 1011.2 hPa | 8.13 mm | - | - | - |
| 1777716005 | 17.22° C | 91% | 1011.5 hPa | 7.87 mm | - | - | - |
| 1777715106 | 17.22° C | 91% | 1011.5 hPa | 7.87 mm | - | - | - |
| 1777714205 | 17.22° C | 91% | 1011.7 hPa | 5.33 mm | - | - | - |
| 1777713305 | 17.22° C | 91% | 1011.7 hPa | 5.33 mm | - | - | - |
| 1777712404 | 17.78° C | 88% | 1011.3 hPa | 3.3 mm | - | - | - |
| 1777711506 | 17.78° C | 88% | 1011.3 hPa | 3.3 mm | - | - | - |
| 1777710605 | 20° C | 69% | 1010.5 hPa | 0.25 mm | - | - | - |
| 1777709705 | 20° C | 69% | 1010.5 hPa | 0.25 mm | - | - | - |
| 1777708805 | 21.67° C | 62% | 1009.7 hPa | 0 mm | - | - | - |
| 1777707906 | 21.67° C | 62% | 1009.7 hPa | 0 mm | - | - | - |
| 1777707005 | 21.67° C | 66% | 1009.4 hPa | 0 mm | - | - | - |
| 1777706105 | 21.67° C | 66% | 1009.4 hPa | 0 mm | - | - | - |
| 1777705205 | 21.11° C | 73% | 1009.6 hPa | 0 mm | - | - | - |
| 1777704305 | 21.11° C | 73% | 1009.6 hPa | 0 mm | - | - | - |
| 1777703405 | 21.11° C | 73% | 1009.8 hPa | 0 mm | - | - | - |
| 1777702505 | 21.11° C | 73% | 1009.8 hPa | 0 mm | - | - | - |
| 1777701605 | 21.11° C | 71% | 1009.9 hPa | 0 mm | - | - | - |
| 1777700707 | 21.11° C | 71% | 1009.9 hPa | 0 mm | - | - | - |
| 1777699805 | 21.67° C | 68% | 1010.1 hPa | 0 mm | - | - | - |
| 1777698906 | 21.67° C | 68% | 1010.1 hPa | 0 mm | - | - | - |
| 1777698005 | 22.22° C | 59% | 1010.3 hPa | 0 mm | - | - | - |
| 1777697105 | 22.22° C | 59% | 1010.3 hPa | 0 mm | - | - | - |
* Rain since midnight (hover to see other rain measurements)
** Current wind speed in m/s (hover to see current wind gust speed)